Kaio Maru — JD2067 — position and weather

sailwx.info

Track history (hours):
 
Tides and Currents Weather Stations Pressure Air Temp Water Temp Dewpoint Dewpoint Depression Visibility Wind Speed Wind Dir Waves Ship Positions

Kaio Maru

Last reported at 2014-Oct-24 09:33 UTC. Time now 2014-Oct-24 09:39 UTC.
Position N 35°35' E 139°48'.

Length 36 m; draft 3.2 m.

Type: Tug. MMSI: 431001455.

Date/timePositionNaut miles runAvg speedWind from/ knotsBaromVisibWave heightAir tempDewpointWater temp
2014-Oct-24 09:33N 35°35' E 139°48'4 0.5
2014-Oct-24 01:14N 35°38' E 139°45'0 0.0
2014-Oct-24 00:34N 35°38' E 139°45'1 1.2
2014-Oct-23 23:33N 35°39' E 139°47'4 3.6
2014-Oct-23 22:33N 35°35' E 139°48'3 1.4
2014-Oct-23 20:07N 35°38' E 139°45'0 0.0
2014-Oct-23 17:34N 35°38' E 139°45'0 0.0
2014-Oct-23 16:32N 35°38' E 139°45'0 0.0
2014-Oct-23 15:27N 35°38' E 139°45'0 0.0
2014-Oct-23 04:29N 35°38' E 139°45'0 0.0
2014-Oct-23 03:25N 35°38' E 139°45'0 0.0
2014-Oct-22 23:28N 35°38' E 139°45'3 3.8
2014-Oct-22 22:33N 35°35' E 139°48'1 0.9
2014-Oct-22 21:32N 35°36' E 139°47'1 0.9
2014-Oct-22 20:33N 35°36' E 139°47'2 0.6
2014-Oct-22 17:15N 35°38' E 139°45'0 0.0
2014-Oct-22 16:18N 35°38' E 139°45'0 0.0
2014-Oct-22 15:29N 35°38' E 139°45'0 0.0
2014-Oct-22 14:28N 35°38' E 139°45'0 0.0
2014-Oct-22 13:32N 35°38' E 139°45'0 0.0
2014-Oct-22 05:28N 35°38' E 139°45'0 0.0
2014-Oct-22 01:24N 35°38' E 139°45'0 0.0
2014-Oct-22 00:33N 35°38' E 139°45'2 1.9
2014-Oct-21 23:34N 35°37' E 139°47'3 2.6
2014-Oct-21 22:34N 35°34' E 139°48'2 1.7
2014-Oct-21 21:33N 35°35' E 139°47'0 0.4
2014-Oct-21 20:33N 35°36' E 139°47'2 1.9
2014-Oct-21 19:33N 35°37' E 139°46'0 0.5
2014-Oct-21 18:31N 35°38' E 139°46'0 0.1
2014-Oct-21 15:10N 35°38' E 139°45'0 0.0
2014-Oct-21 14:21N 35°38' E 139°45'0 0.0
2014-Oct-21 02:05N 35°38' E 139°45'0 0.0
2014-Oct-21 01:26N 35°38' E 139°45'0 0.0
2014-Oct-21 00:09N 35°38' E 139°45'2 3.1
2014-Oct-20 23:34N 35°37' E 139°47'3 3.0
2014-Oct-20 22:34N 35°34' E 139°49'5 4.7
2014-Oct-20 21:32N 35°38' E 139°45'0 0.0
2014-Oct-20 15:29N 35°38' E 139°45'0 0.0
2014-Oct-20 14:33N 35°38' E 139°45'0 0.0
2014-Oct-20 13:04N 35°38' E 139°45'0 0.0
2014-Oct-19 23:27N 35°38' E 139°45'0 0.0
2014-Oct-19 19:29N 35°38' E 139°45'0 0.0
2014-Oct-19 16:21N 35°38' E 139°45'0 0.0
2014-Oct-18 19:28N 35°38' E 139°45'0 0.0
2014-Oct-18 18:32N 35°38' E 139°45'0 0.0
2014-Oct-18 17:32N 35°38' E 139°45'0 0.0
2014-Oct-18 13:18N 35°38' E 139°45'0 0.0
2014-Oct-18 12:26N 35°38' E 139°45'0 0.0
2014-Oct-18 11:25N 35°38' E 139°45'0 0.0
2014-Oct-17 22:27N 35°38' E 139°45'0 0.0
2014-Oct-17 21:33N 35°38' E 139°45'0 0.0
2014-Oct-17 20:25N 35°38' E 139°45'0 0.0
2014-Oct-17 19:29N 35°38' E 139°45'0 0.0
2014-Oct-17 18:20N 35°38' E 139°45'0 0.0
2014-Oct-17 17:12N 35°38' E 139°45'1 0.4
2014-Oct-17 14:21N 35°37' E 139°46'0 0.4
2014-Oct-17 13:30N 35°37' E 139°46'1 0.4
2014-Oct-17 10:14N 35°38' E 139°46'3 3.9
2014-Oct-17 09:26N 35°35' E 139°48'2 2.0
2014-Oct-17 08:33N 35°34' E 139°49'5 0.6
2014-Oct-17 00:33N 35°38' E 139°46'0 0.3
2014-Oct-16 23:08N 35°38' E 139°46'0 0.0
2014-Oct-16 22:26N 35°38' E 139°46'0 0.0
2014-Oct-16 21:32N 35°38' E 139°46'0 0.0
2014-Oct-16 20:28N 35°38' E 139°46'0 0.0
2014-Oct-16 19:30N 35°38' E 139°46'0 0.0
2014-Oct-16 14:22N 35°38' E 139°46'2 0.4
2014-Oct-16 09:29N 35°36' E 139°46'4 3.8
2014-Oct-16 08:33N 35°34' E 139°49'4 0.6
2014-Oct-16 02:33N 35°36' E 139°46'2 0.2
2014-Oct-15 17:08N 35°38' E 139°46'1 0.1
2014-Oct-15 08:09N 35°37' E 139°46'1 1.7
2014-Oct-15 07:32N 35°36' E 139°46'3 0.6
2014-Oct-15 01:33N 35°34' E 139°49'5 2.3
2014-Oct-14 23:23N 35°38' E 139°46'0 0.0
2014-Oct-14 19:33N 35°38' E 139°46'0 0.0
2014-Oct-14 17:25N 35°38' E 139°46'0 0.0
2014-Oct-14 16:26N 35°38' E 139°46'0 0.0
2014-Oct-14 15:29N 35°38' E 139°46'  
Track history (hours):
 
Tides and Currents Weather Stations Pressure Air Temp Water Temp Dewpoint Dewpoint Depression Visibility Wind Speed Wind Dir Waves Ship Positions

Kaio Maru

Last reported at 2014-Oct-24 09:33 UTC. Time now 2014-Oct-24 09:39 UTC.
Position N 35°35' E 139°48'.

Length 36 m; draft 3.2 m.

Type: Tug. MMSI: 431001455.

Date/timePositionNaut miles runAvg speedWind from/ knotsBaromVisibWave heightAir tempDewpointWater temp
2014-Oct-24 09:33N 35°35' E 139°48'4 0.5
2014-Oct-24 01:14N 35°38' E 139°45'0 0.0
2014-Oct-24 00:34N 35°38' E 139°45'1 1.2
2014-Oct-23 23:33N 35°39' E 139°47'4 3.6
2014-Oct-23 22:33N 35°35' E 139°48'3 1.4
2014-Oct-23 20:07N 35°38' E 139°45'0 0.0
2014-Oct-23 17:34N 35°38' E 139°45'0 0.0
2014-Oct-23 16:32N 35°38' E 139°45'0 0.0
2014-Oct-23 15:27N 35°38' E 139°45'0 0.0
2014-Oct-23 04:29N 35°38' E 139°45'0 0.0
2014-Oct-23 03:25N 35°38' E 139°45'0 0.0
2014-Oct-22 23:28N 35°38' E 139°45'3 3.8
2014-Oct-22 22:33N 35°35' E 139°48'1 0.9
2014-Oct-22 21:32N 35°36' E 139°47'1 0.9
2014-Oct-22 20:33N 35°36' E 139°47'2 0.6
2014-Oct-22 17:15N 35°38' E 139°45'0 0.0
2014-Oct-22 16:18N 35°38' E 139°45'0 0.0
2014-Oct-22 15:29N 35°38' E 139°45'0 0.0
2014-Oct-22 14:28N 35°38' E 139°45'0 0.0
2014-Oct-22 13:32N 35°38' E 139°45'0 0.0
2014-Oct-22 05:28N 35°38' E 139°45'0 0.0
2014-Oct-22 01:24N 35°38' E 139°45'0 0.0
2014-Oct-22 00:33N 35°38' E 139°45'2 1.9
2014-Oct-21 23:34N 35°37' E 139°47'3 2.6
2014-Oct-21 22:34N 35°34' E 139°48'2 1.7
2014-Oct-21 21:33N 35°35' E 139°47'0 0.4
2014-Oct-21 20:33N 35°36' E 139°47'2 1.9
2014-Oct-21 19:33N 35°37' E 139°46'0 0.5
2014-Oct-21 18:31N 35°38' E 139°46'0 0.1
2014-Oct-21 15:10N 35°38' E 139°45'0 0.0
2014-Oct-21 14:21N 35°38' E 139°45'0 0.0
2014-Oct-21 02:05N 35°38' E 139°45'0 0.0
2014-Oct-21 01:26N 35°38' E 139°45'0 0.0
2014-Oct-21 00:09N 35°38' E 139°45'2 3.1
2014-Oct-20 23:34N 35°37' E 139°47'3 3.0
2014-Oct-20 22:34N 35°34' E 139°49'5 4.7
2014-Oct-20 21:32N 35°38' E 139°45'0 0.0
2014-Oct-20 15:29N 35°38' E 139°45'0 0.0
2014-Oct-20 14:33N 35°38' E 139°45'0 0.0
2014-Oct-20 13:04N 35°38' E 139°45'0 0.0
2014-Oct-19 23:27N 35°38' E 139°45'0 0.0
2014-Oct-19 19:29N 35°38' E 139°45'0 0.0
2014-Oct-19 16:21N 35°38' E 139°45'0 0.0
2014-Oct-18 19:28N 35°38' E 139°45'0 0.0
2014-Oct-18 18:32N 35°38' E 139°45'0 0.0
2014-Oct-18 17:32N 35°38' E 139°45'0 0.0
2014-Oct-18 13:18N 35°38' E 139°45'0 0.0
2014-Oct-18 12:26N 35°38' E 139°45'0 0.0
2014-Oct-18 11:25N 35°38' E 139°45'0 0.0
2014-Oct-17 22:27N 35°38' E 139°45'0 0.0
2014-Oct-17 21:33N 35°38' E 139°45'0 0.0
2014-Oct-17 20:25N 35°38' E 139°45'0 0.0
2014-Oct-17 19:29N 35°38' E 139°45'0 0.0
2014-Oct-17 18:20N 35°38' E 139°45'0 0.0
2014-Oct-17 17:12N 35°38' E 139°45'1 0.4
2014-Oct-17 14:21N 35°37' E 139°46'0 0.4
2014-Oct-17 13:30N 35°37' E 139°46'1 0.4
2014-Oct-17 10:14N 35°38' E 139°46'3 3.9
2014-Oct-17 09:26N 35°35' E 139°48'2 2.0
2014-Oct-17 08:33N 35°34' E 139°49'5 0.6
2014-Oct-17 00:33N 35°38' E 139°46'0 0.3
2014-Oct-16 23:08N 35°38' E 139°46'0 0.0
2014-Oct-16 22:26N 35°38' E 139°46'0 0.0
2014-Oct-16 21:32N 35°38' E 139°46'0 0.0
2014-Oct-16 20:28N 35°38' E 139°46'0 0.0
2014-Oct-16 19:30N 35°38' E 139°46'0 0.0
2014-Oct-16 14:22N 35°38' E 139°46'2 0.4
2014-Oct-16 09:29N 35°36' E 139°46'4 3.8
2014-Oct-16 08:33N 35°34' E 139°49'4 0.6
2014-Oct-16 02:33N 35°36' E 139°46'2 0.2
2014-Oct-15 17:08N 35°38' E 139°46'1 0.1
2014-Oct-15 08:09N 35°37' E 139°46'1 1.7
2014-Oct-15 07:32N 35°36' E 139°46'3 0.6
2014-Oct-15 01:33N 35°34' E 139°49'5 2.3
2014-Oct-14 23:23N 35°38' E 139°46'0 0.0
2014-Oct-14 19:33N 35°38' E 139°46'0 0.0
2014-Oct-14 17:25N 35°38' E 139°46'0 0.0
2014-Oct-14 16:26N 35°38' E 139°46'0 0.0
2014-Oct-14 15:29N 35°38' E 139°46'  

Dump ship's entire track history